Time;durP1;ratioP1;P1;durP2;ratioP2;P2;SDS_P1;SDS_P2;PMS_P1;PMS_P2;Temp;Humidity;BMP_temperature;BMP_pressure;BME280_temperature;BME280_humidity;BME280_pressure;Samples;Min_cycle;Max_cycle;Signal;HPM_P1;HPM_P2
2023/03/27 00:00:12;;;;;;;;;;;;;;;4.59;100.00;95665.25;5000460;28;19929;-70
2023/03/27 00:02:37;;;;;;;;;;;;;;;4.70;100.00;95670.09;5017357;28;19918;-70
2023/03/27 00:05:04;;;;;;;;;;;;;;;4.59;100.00;95665.25;5004459;28;19917;-71
2023/03/27 00:07:29;;;;;;;;;;;;;;;4.50;100.00;95666.56;5024719;28;19925;-71
2023/03/27 00:09:56;;;;;;;;;;;;;;;4.52;100.00;95667.78;5012894;28;19921;-71
2023/03/27 00:12:22;;;;;;;;;;;;;;;4.58;100.00;95668.31;4992364;28;20129;-71
2023/03/27 00:14:48;;;;;;;;;;;;;;;4.62;100.00;95665.69;5025630;28;20362;-71
2023/03/27 00:17:13;;;;;;;;;;;;;;;4.50;100.00;95670.06;5021030;28;19968;-72
2023/03/27 00:19:39;;;;;;;;;;;;;;;4.56;100.00;95670.59;5023821;28;19971;-71
2023/03/27 00:22:04;;;;;;;;;;;;;;;4.57;100.00;95669.44;5020207;28;19939;-71
2023/03/27 00:24:29;;;;;;;;;;;;;;;4.57;100.00;95675.66;5025376;28;20000;-71
2023/03/27 00:26:55;;;;;;;;;;;;;;;4.58;100.00;95679.94;5025048;28;20414;-71
2023/03/27 00:29:20;;;;;;;;;;;;;;;4.63;100.00;95668.03;5020503;28;19917;-71
2023/03/27 00:31:45;;;;;;;;;;;;;;;4.63;100.00;95667.22;5024914;28;19925;-70
2023/03/27 00:34:11;;;;;;;;;;;;;;;4.65;100.00;95663.03;5020479;28;19956;-70
2023/03/27 00:36:36;;;;;;;;;;;;;;;4.58;100.00;95660.94;5026093;28;19921;-70
2023/03/27 00:39:01;;;;;;;;;;;;;;;4.63;100.00;95659.09;5024167;28;19927;-71
2023/03/27 00:41:27;;;;;;;;;;;;;;;4.64;100.00;95655.25;5020606;28;19921;-70
2023/03/27 00:43:53;;;;;;;;;;;;;;;4.63;100.00;95653.66;5023895;28;19960;-71
2023/03/27 00:46:26;;;;;;;;;;;;;;;4.56;100.00;95659.75;5018689;28;20012;-71
2023/03/27 00:48:52;;;;;;;;;;;;;;;4.59;100.00;95664.44;5009282;28;19949;-71
2023/03/27 00:51:18;;;;;;;;;;;;;;;4.62;100.00;95668.38;4999617;28;19973;-71
2023/03/27 00:53:45;;;;;;;;;;;;;;;4.58;100.00;95666.38;5005385;28;19917;-71
2023/03/27 00:56:11;;;;;;;;;;;;;;;4.60;100.00;95668.75;5020170;28;19961;-70
2023/03/27 00:58:41;;;;;;;;;;;;;;;4.54;100.00;95657.38;5023590;28;19964;-70
2023/03/27 01:01:08;;;;;;;;;;;;;;;4.53;100.00;95660.44;5018669;28;19921;-70
2023/03/27 01:03:33;;;;;;;;;;;;;;;4.59;100.00;95662.53;5012393;28;19917;-72
2023/03/27 01:06:00;;;;;;;;;;;;;;;4.56;100.00;95662.44;5003510;28;19924;-73
2023/03/27 01:08:28;;;;;;;;;;;;;;;4.52;100.00;95662.38;5000697;28;20263;-70
2023/03/27 01:11:14;;;;;;;;;;;;;;;4.60;100.00;95666.81;5021572;28;19921;-72
2023/03/27 01:13:39;;;;;;;;;;;;;;;4.53;100.00;95663.16;5023475;28;20004;-70
2023/03/27 01:16:17;;;;;;;;;;;;;;;4.52;100.00;95670.50;5019088;28;20362;-69
2023/03/27 01:18:52;;;;;;;;;;;;;;;4.49;100.00;95660.34;5023430;28;19960;-72
2023/03/27 01:21:21;;;;;;;;;;;;;;;4.47;100.00;95668.06;5018887;28;20015;-70
2023/03/27 01:24:05;;;;;;;;;;;;;;;4.54;100.00;95672.88;5023822;28;19924;-70
2023/03/27 01:26:36;;;;;;;;;;;;;;;4.36;100.00;95672.47;5022390;28;20437;-70
2023/03/27 01:29:11;;;;;;;;;;;;;;;4.40;100.00;95673.31;5020937;28;19975;-72
2023/03/27 01:31:54;;;;;;;;;;;;;;;4.35;100.00;95668.16;5023244;28;19925;-70
2023/03/27 01:34:40;;;;;;;;;;;;;;;4.36;100.00;95667.81;5019510;28;19953;-72
2023/03/27 01:37:11;;;;;;;;;;;;;;;4.32;100.00;95663.44;5016218;28;20016;-70
2023/03/27 01:39:39;;;;;;;;;;;;;;;4.40;100.00;95671.38;5023496;28;20659;-70
2023/03/27 01:42:05;;;;;;;;;;;;;;;4.47;100.00;95673.47;5018387;28;20008;-72
2023/03/27 01:44:49;;;;;;;;;;;;;;;4.49;100.00;95676.63;5021933;28;20032;-71
2023/03/27 01:47:33;;;;;;;;;;;;;;;4.35;100.00;95681.72;5016528;28;19928;-71
2023/03/27 01:50:17;;;;;;;;;;;;;;;4.43;100.00;95686.19;5018813;28;19917;-70
2023/03/27 01:52:47;;;;;;;;;;;;;;;4.43;100.00;95688.09;5022271;28;19922;-71
2023/03/27 01:55:17;;;;;;;;;;;;;;;4.40;100.00;95687.66;5003966;28;19987;-71
2023/03/27 01:57:49;;;;;;;;;;;;;;;4.42;100.00;95691.94;5002829;28;19918;-71
2023/03/27 02:00:19;;;;;;;;;;;;;;;4.56;100.00;95693.06;5000529;28;19921;-71
2023/03/27 02:03:03;;;;;;;;;;;;;;;4.52;100.00;95694.91;5015345;28;19952;-71
2023/03/27 02:05:32;;;;;;;;;;;;;;;4.42;100.00;95711.72;5019828;28;20294;-71
2023/03/27 02:08:00;;;;;;;;;;;;;;;4.49;100.00;95702.97;5023816;28;20581;-71
2023/03/27 02:10:31;;;;;;;;;;;;;;;4.54;100.00;95687.22;5017735;28;19979;-71
2023/03/27 02:13:02;;;;;;;;;;;;;;;4.50;100.00;95702.63;5019959;28;19925;-72
2023/03/27 02:15:31;;;;;;;;;;;;;;;4.58;100.00;95704.34;5004735;28;19928;-71
2023/03/27 02:18:03;;;;;;;;;;;;;;;4.56;100.00;95716.69;5002268;28;19924;-71
2023/03/27 02:20:30;;;;;;;;;;;;;;;4.60;100.00;95723.75;4983672;28;20387;-72
2023/03/27 02:22:59;;;;;;;;;;;;;;;4.73;100.00;95729.88;5003073;28;19961;-72
2023/03/27 02:25:38;;;;;;;;;;;;;;;4.63;100.00;95729.63;4997803;28;20036;-72
2023/03/27 02:28:03;;;;;;;;;;;;;;;4.67;100.00;95742.13;5000229;28;19918;-71
2023/03/27 02:30:33;;;;;;;;;;;;;;;4.68;100.00;95746.44;5000936;28;19980;-72
2023/03/27 02:33:13;;;;;;;;;;;;;;;4.74;100.00;95747.72;5003103;28;19987;-72
2023/03/27 02:35:44;;;;;;;;;;;;;;;4.65;100.00;95752.56;5001425;28;19924;-72
2023/03/27 02:38:12;;;;;;;;;;;;;;;4.62;100.00;95753.25;4997876;28;19917;-72
2023/03/27 02:40:41;;;;;;;;;;;;;;;4.60;100.00;95760.94;5002778;28;19917;-72
2023/03/27 02:43:15;;;;;;;;;;;;;;;4.68;100.00;95760.00;4996597;28;19948;-72
2023/03/27 02:45:53;;;;;;;;;;;;;;;4.64;100.00;95771.88;5002740;28;19953;-72
2023/03/27 02:48:27;;;;;;;;;;;;;;;4.59;100.00;95776.44;5008415;28;19964;-72
2023/03/27 02:50:56;;;;;;;;;;;;;;;4.57;100.00;95773.28;5022067;28;19921;-72
2023/03/27 02:53:23;;;;;;;;;;;;;;;4.57;100.00;95783.34;5017799;28;20438;-71
2023/03/27 02:55:51;;;;;;;;;;;;;;;4.62;100.00;95787.72;5004143;28;20420;-71
2023/03/27 02:58:20;;;;;;;;;;;;;;;4.62;100.00;95787.72;4997983;28;19929;-71
2023/03/27 03:00:47;;;;;;;;;;;;;;;4.69;100.00;95796.81;5007398;28;20239;-71
2023/03/27 03:03:26;;;;;;;;;;;;;;;4.63;100.00;95798.22;5000459;28;19975;-71
2023/03/27 03:05:51;;;;;;;;;;;;;;;4.73;100.00;95807.75;5022241;28;19921;-71
2023/03/27 03:08:20;;;;;;;;;;;;;;;4.77;100.00;95814.84;5015699;28;19998;-72
2023/03/27 03:10:46;;;;;;;;;;;;;;;4.83;100.00;95811.88;5021916;28;19933;-71
2023/03/27 03:13:12;;;;;;;;;;;;;;;4.83;100.00;95820.78;5017490;28;20003;-72
2023/03/27 03:15:38;;;;;;;;;;;;;;;4.83;100.00;95822.72;5014396;28;19964;-72
2023/03/27 03:18:03;;;;;;;;;;;;;;;4.79;100.00;95833.50;5018738;28;19925;-71
2023/03/27 03:20:29;;;;;;;;;;;;;;;4.75;100.00;95830.69;5020014;28;19961;-71
2023/03/27 03:22:55;;;;;;;;;;;;;;;4.71;100.00;95831.72;5002983;28;19921;-72
2023/03/27 03:25:20;;;;;;;;;;;;;;;4.67;100.00;95841.72;5017618;28;19970;-72
2023/03/27 03:27:45;;;;;;;;;;;;;;;4.73;100.00;95851.94;5004760;28;20356;-71
2023/03/27 03:30:11;;;;;;;;;;;;;;;4.81;100.00;95857.53;5018242;28;19918;-71
2023/03/27 03:32:36;;;;;;;;;;;;;;;4.81;100.00;95860.25;5022379;28;19922;-72
2023/03/27 03:35:01;;;;;;;;;;;;;;;4.81;100.00;95863.78;5022813;28;19917;-74
2023/03/27 03:37:27;;;;;;;;;;;;;;;4.79;100.00;95877.69;5017282;28;19970;-72
2023/03/27 03:39:55;;;;;;;;;;;;;;;4.81;100.00;95879.25;5004527;28;19917;-71
2023/03/27 03:42:21;;;;;;;;;;;;;;;4.84;100.00;95889.41;5016943;28;19969;-73
2023/03/27 03:44:46;;;;;;;;;;;;;;;4.85;100.00;95891.78;5022137;28;19982;-72
2023/03/27 03:47:12;;;;;;;;;;;;;;;4.85;100.00;95904.56;5016919;28;19917;-71
2023/03/27 03:49:37;;;;;;;;;;;;;;;4.97;100.00;95907.19;5016821;28;19973;-72
2023/03/27 03:52:02;;;;;;;;;;;;;;;5.06;100.00;95920.56;4999821;28;19921;-71
2023/03/27 03:54:27;;;;;;;;;;;;;;;4.97;100.00;95918.06;5005347;28;19999;-71
2023/03/27 03:56:53;;;;;;;;;;;;;;;4.78;100.00;95926.88;5020263;28;20359;-72
2023/03/27 03:59:18;;;;;;;;;;;;;;;4.82;100.00;95945.94;5017297;28;19921;-72
2023/03/27 04:01:44;;;;;;;;;;;;;;;4.96;100.00;95943.59;5021428;28;19971;-72
2023/03/27 04:04:10;;;;;;;;;;;;;;;5.07;100.00;95954.72;5009744;28;19925;-73
2023/03/27 04:06:38;;;;;;;;;;;;;;;5.02;100.00;95958.47;5022574;28;19921;-74
2023/03/27 04:09:04;;;;;;;;;;;;;;;5.10;100.00;95965.69;5018145;28;19917;-71
2023/03/27 04:11:29;;;;;;;;;;;;;;;5.02;100.00;95971.28;5018969;28;19975;-73
2023/03/27 04:13:54;;;;;;;;;;;;;;;5.01;100.00;95975.13;5021644;28;19917;-73
2023/03/27 04:16:21;;;;;;;;;;;;;;;5.15;100.00;95976.28;5000674;28;19953;-72
2023/03/27 04:18:48;;;;;;;;;;;;;;;5.07;100.00;95982.66;5001197;28;20104;-72
2023/03/27 04:21:14;;;;;;;;;;;;;;;5.10;100.00;95986.63;4996568;28;20016;-73
2023/03/27 04:23:44;;;;;;;;;;;;;;;5.01;100.00;95988.72;5009992;28;20003;-73
2023/03/27 04:26:10;;;;;;;;;;;;;;;5.00;100.00;95989.84;5016690;28;20015;-72
2023/03/27 04:28:36;;;;;;;;;;;;;;;5.05;100.00;95998.50;5021866;28;19921;-73
2023/03/27 04:31:06;;;;;;;;;;;;;;;4.97;100.00;96002.97;5022697;28;19921;-73
2023/03/27 04:33:33;;;;;;;;;;;;;;;5.03;100.00;96011.63;5020874;28;19917;-73
2023/03/27 04:35:59;;;;;;;;;;;;;;;5.08;100.00;96018.75;5020844;28;19960;-73
2023/03/27 04:38:25;;;;;;;;;;;;;;;4.98;100.00;96028.94;5020628;28;19917;-73
2023/03/27 04:40:51;;;;;;;;;;;;;;;5.00;100.00;96025.91;5024644;28;20012;-73
2023/03/27 04:43:16;;;;;;;;;;;;;;;4.96;100.00;96031.22;5019271;28;19921;-73
2023/03/27 04:45:45;;;;;;;;;;;;;;;4.84;100.00;96033.22;5023900;28;19916;-72
2023/03/27 04:48:10;;;;;;;;;;;;;;;4.88;100.00;96039.50;5010973;28;20004;-72
2023/03/27 04:50:36;;;;;;;;;;;;;;;4.86;100.00;96049.94;5004690;28;20016;-72
2023/03/27 04:53:01;;;;;;;;;;;;;;;4.80;100.00;96049.38;4987492;28;19968;-73
2023/03/27 04:55:27;;;;;;;;;;;;;;;4.75;100.00;96057.75;5016886;28;19921;-71
2023/03/27 04:57:53;;;;;;;;;;;;;;;4.73;100.00;96063.53;5024912;28;19964;-74
2023/03/27 05:00:19;;;;;;;;;;;;;;;4.74;100.00;96070.56;4999576;28;20012;-71
2023/03/27 05:02:48;;;;;;;;;;;;;;;4.67;100.00;96075.00;5012678;28;19952;-70
2023/03/27 05:05:15;;;;;;;;;;;;;;;4.44;100.00;96078.19;5016792;28;20682;-71
2023/03/27 05:07:43;;;;;;;;;;;;;;;4.46;100.00;96088.69;5023188;28;20302;-71
2023/03/27 05:10:09;;;;;;;;;;;;;;;4.47;100.00;96091.06;5019345;28;19940;-71
2023/03/27 05:12:34;;;;;;;;;;;;;;;4.47;100.00;96101.13;5024027;28;20374;-72
2023/03/27 05:15:02;;;;;;;;;;;;;;;4.50;100.00;96108.56;5007047;28;19925;-72
2023/03/27 05:17:28;;;;;;;;;;;;;;;4.33;100.00;96110.41;5021058;28;19924;-70
2023/03/27 05:19:53;;;;;;;;;;;;;;;4.29;100.00;96122.28;5024400;28;19918;-71
2023/03/27 05:22:18;;;;;;;;;;;;;;;4.51;100.00;96126.44;5019328;28;20263;-73
2023/03/27 05:24:43;;;;;;;;;;;;;;;4.50;100.00;96131.06;5020847;28;19921;-72
2023/03/27 05:27:09;;;;;;;;;;;;;;;4.54;100.00;96142.81;5018651;28;19917;-73
2023/03/27 05:29:34;;;;;;;;;;;;;;;4.54;100.00;96145.53;5023434;28;19921;-73
2023/03/27 05:31:59;;;;;;;;;;;;;;;4.55;100.00;96146.31;5023895;28;19955;-72
2023/03/27 05:34:25;;;;;;;;;;;;;;;4.52;100.00;96157.84;5020073;28;20389;-71
2023/03/27 05:36:51;;;;;;;;;;;;;;;4.56;100.00;96164.19;5020617;28;19927;-71
2023/03/27 05:39:16;;;;;;;;;;;;;;;4.58;100.00;96161.91;5017431;28;20375;-71
2023/03/27 05:41:42;;;;;;;;;;;;;;;4.41;100.00;96173.78;5023776;28;19921;-72
2023/03/27 05:44:08;;;;;;;;;;;;;;;4.31;100.00;96190.50;5018905;28;19968;-71
2023/03/27 05:46:33;;;;;;;;;;;;;;;4.22;100.00;96201.44;5022184;28;19939;-72
2023/03/27 05:48:58;;;;;;;;;;;;;;;4.12;100.00;96208.09;5018444;28;19929;-72
2023/03/27 05:51:24;;;;;;;;;;;;;;;4.06;100.00;96214.06;5017308;28;20338;-71
2023/03/27 05:53:49;;;;;;;;;;;;;;;3.97;100.00;96214.16;5012638;28;19917;-71
2023/03/27 05:56:14;;;;;;;;;;;;;;;4.01;100.00;96225.91;4999450;28;19923;-73
2023/03/27 05:58:40;;;;;;;;;;;;;;;4.01;100.00;96234.81;5004281;28;19922;-72
2023/03/27 06:01:06;;;;;;;;;;;;;;;3.96;100.00;96236.97;5008587;28;19921;-72
2023/03/27 06:03:35;;;;;;;;;;;;;;;4.01;100.00;96242.16;5023438;28;19925;-72
2023/03/27 06:06:10;;;;;;;;;;;;;;;4.04;100.00;96251.56;5024819;28;19986;-73
2023/03/27 06:08:36;;;;;;;;;;;;;;;4.01;100.00;96261.91;5003293;28;20199;-71
2023/03/27 06:11:06;;;;;;;;;;;;;;;4.02;100.00;96262.72;5004571;28;19921;-71
2023/03/27 06:13:31;;;;;;;;;;;;;;;4.04;100.00;96268.59;5022780;28;20362;-73
2023/03/27 06:15:57;;;;;;;;;;;;;;;4.09;100.00;96278.44;5022262;28;19979;-71
2023/03/27 06:18:22;;;;;;;;;;;;;;;4.00;100.00;96292.09;5017412;28;20925;-71
2023/03/27 06:20:48;;;;;;;;;;;;;;;4.16;100.00;96300.34;5022983;28;20354;-72
2023/03/27 06:23:14;;;;;;;;;;;;;;;4.27;100.00;96306.97;5020638;28;20365;-72
2023/03/27 06:25:40;;;;;;;;;;;;;;;4.14;99.98;96314.28;5004605;28;19921;-71
2023/03/27 06:28:07;;;;;;;;;;;;;;;4.14;99.67;96314.28;5010016;28;19932;-72
2023/03/27 06:30:36;;;;;;;;;;;;;;;4.20;99.46;96325.69;5005099;28;19929;-72
2023/03/27 06:33:02;;;;;;;;;;;;;;;4.27;99.24;96319.69;5022796;28;19917;-72
2023/03/27 06:35:29;;;;;;;;;;;;;;;4.21;98.46;96330.78;5010001;28;19971;-72
2023/03/27 06:37:55;;;;;;;;;;;;;;;4.26;98.83;96329.75;5024170;28;19917;-72
2023/03/27 06:40:21;;;;;;;;;;;;;;;4.30;98.95;96343.44;5002914;28;19941;-73
2023/03/27 06:42:47;;;;;;;;;;;;;;;4.40;97.71;96353.88;5002926;28;19925;-72
2023/03/27 06:45:12;;;;;;;;;;;;;;;5.36;91.69;96369.00;4982438;28;19983;-72
2023/03/27 06:47:38;;;;;;;;;;;;;;;6.51;82.06;96375.84;5007057;28;19917;-73
2023/03/27 06:50:03;;;;;;;;;;;;;;;6.65;80.16;96370.00;5003356;28;19971;-72
2023/03/27 06:52:29;;;;;;;;;;;;;;;6.60;78.91;96386.56;5002932;28;20382;-73
2023/03/27 06:54:54;;;;;;;;;;;;;;;6.93;75.70;96381.97;5009803;28;19944;-73
2023/03/27 06:57:19;;;;;;;;;;;;;;;7.42;74.27;96396.03;5015267;28;19928;-73
2023/03/27 06:59:45;;;;;;;;;;;;;;;8.08;70.43;96393.56;5023087;28;19928;-71
2023/03/27 07:02:10;;;;;;;;;;;;;;;7.90;69.65;96398.66;5017337;28;20465;-73
2023/03/27 07:04:35;;;;;;;;;;;;;;;7.14;72.90;96401.56;5011394;28;19922;-70
2023/03/27 07:07:01;;;;;;;;;;;;;;;6.66;74.54;96408.88;5004295;28;20009;-72
2023/03/27 07:09:26;;;;;;;;;;;;;;;6.29;76.02;96409.06;4980091;28;19921;-71
2023/03/27 07:11:51;;;;;;;;;;;;;;;6.08;77.58;96423.59;5002263;28;19987;-71
2023/03/27 07:14:17;;;;;;;;;;;;;;;5.99;79.75;96424.88;4996927;28;19925;-71
2023/03/27 07:16:42;;;;;;;;;;;;;;;5.70;78.24;96437.59;5002076;28;19918;-71
2023/03/27 07:19:07;;;;;;;;;;;;;;;5.62;78.37;96435.75;4997875;28;20350;-71
2023/03/27 07:21:32;;;;;;;;;;;;;;;5.40;77.80;96442.44;5001960;28;19917;-71
2023/03/27 07:23:58;;;;;;;;;;;;;;;5.21;78.96;96454.66;5002783;28;20007;-72
2023/03/27 07:26:23;;;;;;;;;;;;;;;4.95;79.86;96460.38;4997995;28;20681;-72
2023/03/27 07:28:50;;;;;;;;;;;;;;;5.16;79.24;96463.81;5003169;28;19967;-69
2023/03/27 07:31:16;;;;;;;;;;;;;;;5.00;78.29;96472.94;4996899;28;19925;-71
2023/03/27 07:33:41;;;;;;;;;;;;;;;5.11;79.22;96484.94;5001743;28;19921;-71
2023/03/27 07:36:07;;;;;;;;;;;;;;;5.01;74.41;96491.63;4996365;28;19940;-71
2023/03/27 07:38:33;;;;;;;;;;;;;;;4.92;72.88;96501.78;5001726;28;19956;-72
2023/03/27 07:41:04;;;;;;;;;;;;;;;4.59;71.25;96502.53;5021310;28;19917;-71
2023/03/27 07:43:30;;;;;;;;;;;;;;;4.39;72.15;96509.56;5021675;28;20259;-72
2023/03/27 07:45:56;;;;;;;;;;;;;;;4.45;71.97;96519.09;5003906;28;19921;-72
2023/03/27 07:48:21;;;;;;;;;;;;;;;4.50;72.78;96515.38;5015514;28;19929;-73
2023/03/27 07:50:47;;;;;;;;;;;;;;;4.55;70.60;96534.16;5045784;23;19940;-68
2023/03/27 07:53:12;;;;;;;;;;;;;;;4.30;72.02;96533.22;5021886;28;19925;-67
2023/03/27 07:55:40;;;;;;;;;;;;;;;4.09;70.27;96544.84;5029852;28;19928;-69
2023/03/27 07:58:06;;;;;;;;;;;;;;;4.33;70.37;96535.28;5037137;28;19917;-66
2023/03/27 08:00:34;;;;;;;;;;;;;;;4.39;68.34;96555.66;5042092;28;19920;-69
2023/03/27 08:03:06;;;;;;;;;;;;;;;4.22;70.48;96551.16;5040024;28;19920;-68
2023/03/27 08:05:32;;;;;;;;;;;;;;;4.35;69.64;96560.94;5057642;28;19921;-70
2023/03/27 08:07:57;;;;;;;;;;;;;;;4.26;70.46;96570.25;5061743;28;20276;-68
2023/03/27 08:10:23;;;;;;;;;;;;;;;3.95;71.36;96568.69;5056320;28;20377;-69
2023/03/27 08:12:48;;;;;;;;;;;;;;;4.09;72.22;96582.81;5065720;28;19920;-68
2023/03/27 08:15:13;;;;;;;;;;;;;;;4.13;72.58;96591.06;5060548;28;20319;-68
2023/03/27 08:17:38;;;;;;;;;;;;;;;4.16;72.09;96596.63;5064502;28;19928;-69
2023/03/27 08:20:08;;;;;;;;;;;;;;;4.06;69.10;96599.72;5061126;28;19924;-67
2023/03/27 08:22:33;;;;;;;;;;;;;;;3.93;68.56;96609.66;5064481;28;19917;-69
2023/03/27 08:24:59;;;;;;;;;;;;;;;4.02;68.07;96610.41;5064792;28;20001;-68
2023/03/27 08:27:24;;;;;;;;;;;;;;;4.24;68.13;96613.19;5058752;28;20442;-68
2023/03/27 08:29:49;;;;;;;;;;;;;;;4.28;64.54;96616.81;5065959;28;19921;-68
2023/03/27 08:32:15;;;;;;;;;;;;;;;4.25;62.29;96623.69;5060290;28;19917;-68
2023/03/27 08:34:41;;;;;;;;;;;;;;;4.25;62.48;96623.69;5068621;28;19920;-68
2023/03/27 08:37:07;;;;;;;;;;;;;;;4.49;63.42;96633.13;5064942;28;19916;-67
2023/03/27 08:39:33;;;;;;;;;;;;;;;4.63;62.13;96638.28;5056615;28;19916;-69
2023/03/27 08:42:00;;;;;;;;;;;;;;;4.64;63.58;96645.31;5045878;28;19917;-68
2023/03/27 08:44:26;;;;;;;;;;;;;;;4.67;63.61;96653.59;5022158;28;20365;-68
2023/03/27 08:46:55;;;;;;;;;;;;;;;4.89;63.65;96666.06;5046127;28;19917;-68
2023/03/27 08:49:21;;;;;;;;;;;;;;;5.19;62.80;96668.72;5039981;28;19925;-68
2023/03/27 08:51:51;;;;;;;;;;;;;;;5.21;62.96;96671.88;5044913;28;19927;-67
2023/03/27 08:54:24;;;;;;;;;;;;;;;5.73;61.28;96687.72;5042998;28;20382;-68
2023/03/27 08:56:50;;;;;;;;;;;;;;;5.63;60.86;96688.13;5032931;28;19971;-68
2023/03/27 08:59:18;;;;;;;;;;;;;;;5.58;61.11;96692.97;5021296;28;19925;-68
2023/03/27 09:02:02;;;;;;;;;;;;;;;5.80;61.55;96695.31;5025232;28;19917;-69
2023/03/27 09:04:46;;;;;;;;;;;;;;;6.26;58.88;96693.38;5010580;28;19998;-68
2023/03/27 09:07:23;;;;;;;;;;;;;;;5.90;61.15;96700.31;5021197;28;20333;-68
2023/03/27 09:10:02;;;;;;;;;;;;;;;6.09;61.57;96705.28;5038945;28;20161;-68
2023/03/27 09:12:27;;;;;;;;;;;;;;;6.25;58.42;96705.41;5031422;28;20362;-68
2023/03/27 09:15:03;;;;;;;;;;;;;;;6.11;59.48;96703.00;5025553;28;19928;-68
2023/03/27 09:17:32;;;;;;;;;;;;;;;6.13;58.24;96717.06;5065029;28;19948;-68
2023/03/27 09:20:05;;;;;;;;;;;;;;;6.12;58.42;96711.94;5068700;28;19920;-68
2023/03/27 09:22:43;;;;;;;;;;;;;;;5.98;58.39;96717.72;5046183;28;19916;-69
2023/03/27 09:25:17;;;;;;;;;;;;;;;5.93;58.05;96721.41;5059050;28;19939;-68
2023/03/27 09:27:44;;;;;;;;;;;;;;;6.11;58.00;96726.69;5046536;28;19966;-68
2023/03/27 09:30:09;;;;;;;;;;;;;;;6.19;57.96;96730.44;5073662;28;19943;-67
2023/03/27 09:32:36;;;;;;;;;;;;;;;6.12;58.82;96731.81;5076045;28;20007;-68
2023/03/27 09:35:03;;;;;;;;;;;;;;;6.55;56.91;96742.50;5064923;28;19970;-68
2023/03/27 09:37:28;;;;;;;;;;;;;;;6.51;57.71;96745.09;5061119;28;19982;-69
2023/03/27 09:39:53;;;;;;;;;;;;;;;6.36;57.03;96746.56;5051832;28;19963;-68
2023/03/27 09:42:19;;;;;;;;;;;;;;;6.16;57.56;96750.13;5039664;28;19921;-68
2023/03/27 09:44:46;;;;;;;;;;;;;;;5.99;58.54;96757.34;5043848;28;19917;-69
2023/03/27 09:47:13;;;;;;;;;;;;;;;5.64;57.89;96751.44;5020922;28;19924;-68
2023/03/27 09:49:47;;;;;;;;;;;;;;;5.40;58.30;96768.38;5030647;28;20390;-68
2023/03/27 09:52:36;;;;;;;;;;;;;;;5.57;58.86;96762.03;5019903;28;19924;-68
2023/03/27 09:55:02;;;;;;;;;;;;;;;5.62;59.08;96759.09;5043370;28;20384;-67
2023/03/27 09:57:32;;;;;;;;;;;;;;;5.64;61.26;96765.00;5055674;28;19920;-68
2023/03/27 10:00:08;;;;;;;;;;;;;;;5.72;62.03;96764.91;5071256;28;19946;-68
2023/03/27 10:02:35;;;;;;;;;;;;;;;5.96;60.28;96771.63;5063701;28;19920;-68
2023/03/27 10:05:18;;;;;;;;;;;;;;;6.13;60.44;96771.44;5046605;28;20368;-67
2023/03/27 10:07:44;;;;;;;;;;;;;;;6.28;60.22;96777.38;5063296;28;20392;-68
2023/03/27 10:10:18;;;;;;;;;;;;;;;6.34;59.47;96778.75;5057616;28;19935;-69
2023/03/27 10:12:46;;;;;;;;;;;;;;;6.52;59.84;96779.38;5062174;28;19962;-68
2023/03/27 10:15:30;;;;;;;;;;;;;;;6.62;59.33;96787.06;5057661;28;20416;-68
2023/03/27 10:17:56;;;;;;;;;;;;;;;6.36;58.14;96794.75;5063013;28;19994;-67
2023/03/27 10:20:22;;;;;;;;;;;;;;;6.51;57.81;96797.59;5058398;28;19916;-69
2023/03/27 10:22:50;;;;;;;;;;;;;;;6.38;58.54;96815.03;5063600;28;19955;-67
2023/03/27 10:25:20;;;;;;;;;;;;;;;6.06;58.82;96806.53;5058220;28;19920;-71
2023/03/27 10:27:46;;;;;;;;;;;;;;;6.36;57.00;96814.59;5064499;28;19920;-65
2023/03/27 10:30:31;;;;;;;;;;;;;;;6.43;56.92;96805.88;5056706;28;19917;-68
2023/03/27 10:32:57;;;;;;;;;;;;;;;6.94;54.93;96817.28;5065846;28;19925;-67
2023/03/27 10:35:36;;;;;;;;;;;;;;;6.84;53.79;96815.81;5059695;28;19928;-67
2023/03/27 10:38:05;;;;;;;;;;;;;;;6.85;53.93;96822.81;5063063;28;19921;-65
2023/03/27 10:40:32;;;;;;;;;;;;;;;6.95;53.63;96823.50;5029943;28;19923;-68
2023/03/27 10:43:00;;;;;;;;;;;;;;;7.10;54.21;96827.50;5043168;28;19920;-68
2023/03/27 10:45:25;;;;;;;;;;;;;;;7.21;54.56;96825.91;5038366;28;19917;-67
2023/03/27 10:47:53;;;;;;;;;;;;;;;7.37;55.34;96821.34;5043281;28;19932;-68
2023/03/27 10:50:20;;;;;;;;;;;;;;;7.51;52.74;96828.34;5037308;28;20308;-67
2023/03/27 10:52:45;;;;;;;;;;;;;;;7.77;51.96;96828.75;5043704;28;19924;-67
2023/03/27 10:55:34;;;;;;;;;;;;;;;7.78;51.45;96835.81;5036191;28;20380;-67
2023/03/27 10:58:04;;;;;;;;;;;;;;;7.59;51.47;96836.41;5004501;28;20015;-68
2023/03/27 11:00:42;;;;;;;;;;;;;;;7.63;51.08;96842.78;5022710;28;19917;-69
2023/03/27 11:03:25;;;;;;;;;;;;;;;7.54;51.99;96846.75;5000816;28;19928;-67
2023/03/27 11:05:53;;;;;;;;;;;;;;;7.61;52.40;96846.97;5005341;28;20020;-66
2023/03/27 11:08:22;;;;;;;;;;;;;;;8.00;52.57;96850.06;5017948;28;19918;-68
2023/03/27 11:10:49;;;;;;;;;;;;;;;8.39;49.28;96844.88;5024374;28;19917;-68
2023/03/27 11:13:37;;;;;;;;;;;;;;;8.79;47.94;96853.03;5025252;28;19940;-68
2023/03/27 11:16:05;;;;;;;;;;;;;;;8.86;47.34;96857.88;5017547;28;19917;-67
2023/03/27 11:18:35;;;;;;;;;;;;;;;8.99;47.38;96855.84;5049270;28;19932;-68
2023/03/27 11:21:03;;;;;;;;;;;;;;;8.66;47.21;96853.44;5063849;28;19927;-69
2023/03/27 11:23:35;;;;;;;;;;;;;;;8.54;47.24;96857.81;5062374;28;19928;-68
2023/03/27 11:26:02;;;;;;;;;;;;;;;8.45;48.29;96859.13;5063882;28;19969;-68
2023/03/27 11:28:30;;;;;;;;;;;;;;;8.37;48.17;96866.28;5040109;28;19926;-69
2023/03/27 11:31:09;;;;;;;;;;;;;;;8.18;47.32;96873.19;5044866;28;20023;-69
2023/03/27 11:33:53;;;;;;;;;;;;;;;7.55;48.98;96873.66;5065184;28;19947;-68
2023/03/27 11:36:25;;;;;;;;;;;;;;;8.08;47.86;96887.31;5066371;28;19916;-67
2023/03/27 11:39:20;;;;;;;;;;;;;;;8.45;46.75;96880.97;5043482;28;20028;-67
2023/03/27 11:41:51;;;;;;;;;;;;;;;8.22;46.55;96884.19;5016689;28;19995;-68
2023/03/27 11:44:17;;;;;;;;;;;;;;;8.09;47.46;96894.38;5001398;28;19923;-71
2023/03/27 11:46:57;;;;;;;;;;;;;;;7.95;46.77;96891.22;5008154;28;19917;-70
2023/03/27 11:49:23;;;;;;;;;;;;;;;8.13;46.15;96897.19;5023104;28;20329;-72
2023/03/27 11:52:00;;;;;;;;;;;;;;;8.20;46.27;96894.66;5027907;28;19917;-71
2023/03/27 11:54:26;;;;;;;;;;;;;;;8.18;47.24;96895.00;5027617;28;20011;-71
2023/03/27 11:56:56;;;;;;;;;;;;;;;8.53;45.21;96897.16;5028063;28;20333;-70
2023/03/27 11:59:27;;;;;;;;;;;;;;;8.45;45.10;96892.69;5021650;28;19917;-70
2023/03/27 12:01:53;;;;;;;;;;;;;;;8.91;44.68;96893.13;5037509;28;20004;-71
2023/03/27 12:04:18;;;;;;;;;;;;;;;8.84;45.34;96900.31;5043676;28;20067;-70
2023/03/27 12:06:44;;;;;;;;;;;;;;;8.82;45.82;96899.88;5032429;28;20007;-71
2023/03/27 12:09:09;;;;;;;;;;;;;;;9.01;44.39;96902.72;5031693;28;20029;-71
2023/03/27 12:11:37;;;;;;;;;;;;;;;8.90;43.56;96902.47;5047708;28;19917;-71
2023/03/27 12:14:11;;;;;;;;;;;;;;;8.67;45.20;96902.25;5045699;28;19943;-64
2023/03/27 12:16:52;;;;;;;;;;;;;;;9.39;44.53;96901.31;5055914;28;19984;-68
2023/03/27 12:19:20;;;;;;;;;;;;;;;9.76;44.18;96901.81;5045131;28;19966;-70
2023/03/27 12:22:04;;;;;;;;;;;;;;;10.38;42.83;96901.19;5048981;28;20308;-70
2023/03/27 12:25:02;;;;;;;;;;;;;;;10.04;40.38;96905.53;5066878;28;19966;-70
2023/03/27 12:27:46;;;;;;;;;;;;;;;9.47;40.90;96902.28;5013615;28;19961;-68
2023/03/27 12:30:12;;;;;;;;;;;;;;;9.14;42.50;96906.97;5042440;28;19921;-70
2023/03/27 12:32:49;;;;;;;;;;;;;;;8.95;43.79;96912.34;5066102;28;19966;-68
2023/03/27 12:35:17;;;;;;;;;;;;;;;8.39;45.97;96908.47;5050282;28;19920;-69
2023/03/27 12:37:47;;;;;;;;;;;;;;;7.83;46.89;96911.09;5065056;28;19917;-68
2023/03/27 12:40:26;;;;;;;;;;;;;;;7.88;46.64;96921.00;5053569;28;19921;-71
2023/03/27 12:42:52;;;;;;;;;;;;;;;8.15;45.37;96916.75;5027308;28;20000;-70
2023/03/27 12:45:22;;;;;;;;;;;;;;;8.37;45.77;96918.13;5038230;28;19943;-69
2023/03/27 12:48:17;;;;;;;;;;;;;;;8.44;45.29;96914.84;5047446;28;19920;-67
2023/03/27 12:50:42;;;;;;;;;;;;;;;8.46;43.46;96910.63;5020452;28;19949;-69
2023/03/27 12:53:18;;;;;;;;;;;;;;;8.33;43.80;96918.03;5003846;28;19921;-68
2023/03/27 12:55:44;;;;;;;;;;;;;;;8.28;43.83;96922.94;5034584;28;20321;-71
2023/03/27 12:58:10;;;;;;;;;;;;;;;8.06;43.74;96927.00;5040139;28;19921;-71
2023/03/27 13:00:36;;;;;;;;;;;;;;;7.85;43.99;96936.13;5046782;28;19924;-71